createdAt,value
2018-06-25T00:01:14.445Z,1.97
2018-06-25T00:02:50.425Z,1.90
2018-06-25T00:04:27.872Z,1.93
2018-06-25T00:06:03.882Z,1.80
2018-06-25T00:07:39.800Z,1.80
2018-06-25T00:09:15.758Z,1.90
2018-06-25T00:10:51.490Z,2.10
2018-06-25T00:12:27.324Z,2.03
2018-06-25T00:14:03.281Z,2.10
2018-06-25T00:15:39.266Z,2.03
2018-06-25T00:17:15.239Z,1.90
2018-06-25T00:18:51.205Z,2.30
2018-06-25T00:20:27.149Z,2.27
2018-06-25T00:22:03.189Z,2.47
2018-06-25T00:23:39.136Z,2.40
2018-06-25T00:25:15.103Z,2.07
2018-06-25T00:26:52.148Z,2.70
2018-06-25T00:28:28.509Z,2.30
2018-06-25T00:30:04.518Z,2.47
2018-06-25T00:31:40.865Z,2.20
2018-06-25T00:33:17.281Z,2.93
2018-06-25T00:34:53.285Z,3.07
2018-06-25T00:36:29.341Z,2.93
2018-06-25T00:38:05.445Z,2.63
2018-06-25T00:39:41.386Z,2.00
2018-06-25T00:41:18.466Z,2.50
2018-06-25T00:42:56.606Z,2.47
2018-06-25T00:44:32.588Z,2.77
2018-06-25T00:46:08.553Z,2.10
2018-06-25T00:47:44.645Z,2.00
2018-06-25T00:49:20.615Z,2.47
2018-06-25T00:50:56.822Z,2.13
2018-06-25T00:52:32.804Z,2.23
2018-06-25T00:54:09.361Z,2.20
2018-06-25T00:55:45.402Z,2.37
2018-06-25T00:57:22.033Z,1.97
2018-06-25T00:59:14.924Z,2.23
2018-06-25T01:00:52.181Z,2.13
2018-06-25T01:02:28.652Z,1.90
2018-06-25T01:04:04.701Z,2.07
2018-06-25T01:05:40.700Z,2.13
2018-06-25T01:07:17.485Z,2.27
2018-06-25T01:08:53.482Z,2.20
2018-06-25T01:10:29.446Z,2.03
2018-06-25T01:12:05.455Z,1.80
2018-06-25T01:13:41.435Z,2.00
2018-06-25T01:15:17.795Z,2.00
2018-06-25T01:16:54.794Z,1.70
2018-06-25T01:18:30.982Z,1.80
2018-06-25T01:20:07.037Z,1.60
2018-06-25T01:21:43.048Z,1.93
2018-06-25T01:23:19.652Z,1.80
2018-06-25T01:24:55.748Z,1.90
2018-06-25T01:26:31.848Z,1.90
2018-06-25T01:28:07.878Z,1.70
2018-06-25T01:29:43.885Z,1.80
2018-06-25T01:31:19.854Z,1.40
2018-06-25T01:32:57.031Z,1.70
2018-06-25T01:34:33.129Z,1.50
2018-06-25T01:36:08.911Z,1.40
2018-06-25T01:37:44.757Z,1.50
2018-06-25T01:39:20.857Z,1.33
2018-06-25T01:40:56.678Z,1.37
2018-06-25T01:42:32.499Z,1.33
2018-06-25T01:44:08.619Z,1.40
2018-06-25T01:45:44.618Z,1.23
2018-06-25T01:47:20.729Z,1.50
2018-06-25T01:48:57.265Z,1.43
2018-06-25T01:50:33.383Z,1.57
2018-06-25T01:52:13.088Z,1.40
2018-06-25T01:53:50.061Z,1.30
2018-06-25T01:55:26.509Z,1.20
2018-06-25T01:57:02.572Z,1.40
2018-06-25T01:58:38.419Z,1.40
2018-06-25T02:00:14.400Z,1.40
2018-06-25T02:01:50.411Z,1.30
2018-06-25T02:03:26.429Z,1.50
2018-06-25T02:05:02.497Z,1.37
2018-06-25T02:06:40.739Z,1.40
2018-06-25T02:08:16.771Z,1.30
2018-06-25T02:09:52.845Z,1.37
2018-06-25T02:11:28.890Z,1.20
2018-06-25T02:13:04.891Z,1.50
2018-06-25T02:14:40.915Z,1.10
2018-06-25T02:16:16.915Z,1.70
2018-06-25T02:17:52.865Z,1.70
2018-06-25T02:19:28.866Z,1.47
2018-06-25T02:21:04.862Z,1.50
2018-06-25T02:22:40.860Z,1.60
2018-06-25T02:24:16.883Z,1.67
2018-06-25T02:25:52.881Z,1.73
2018-06-25T02:27:28.888Z,1.60
2018-06-25T02:29:05.008Z,1.50
2018-06-25T02:30:41.024Z,1.80
2018-06-25T02:32:17.070Z,1.80
2018-06-25T02:33:53.120Z,1.90
2018-06-25T02:35:29.143Z,1.67
2018-06-25T02:37:05.734Z,1.80
2018-06-25T02:38:41.854Z,1.50
2018-06-25T02:40:17.887Z,1.70
2018-06-25T02:41:53.634Z,1.73
2018-06-25T02:43:29.411Z,1.80
2018-06-25T02:45:05.532Z,2.13
2018-06-25T02:46:41.283Z,2.00
2018-06-25T02:48:17.232Z,2.07
2018-06-25T02:49:53.360Z,1.70
2018-06-25T02:51:29.378Z,1.73
2018-06-25T02:53:05.424Z,2.53
2018-06-25T02:54:41.426Z,2.10
2018-06-25T02:56:17.437Z,2.27
2018-06-25T02:57:53.389Z,1.93
2018-06-25T02:59:29.400Z,2.20
2018-06-25T03:01:05.466Z,2.40
2018-06-25T03:02:41.481Z,2.53
2018-06-25T03:04:17.496Z,2.60
2018-06-25T03:05:53.536Z,2.67
2018-06-25T03:07:29.570Z,2.70
2018-06-25T03:09:08.687Z,3.07
2018-06-25T03:10:44.648Z,2.80
2018-06-25T03:12:21.530Z,2.53
2018-06-25T03:13:57.536Z,2.60
2018-06-25T03:15:33.283Z,2.50
2018-06-25T03:17:09.083Z,2.50
2018-06-25T03:18:45.113Z,2.50
2018-06-25T03:20:21.368Z,2.43
2018-06-25T03:21:57.479Z,2.40
2018-06-25T03:23:33.480Z,3.10
2018-06-25T03:25:09.487Z,3.10
2018-06-25T03:26:45.231Z,3.13
2018-06-25T03:28:21.033Z,3.23
2018-06-25T03:29:57.032Z,3.70
2018-06-25T03:31:33.052Z,3.43
2018-06-25T03:33:09.051Z,3.20
2018-06-25T03:34:50.011Z,3.40
2018-06-25T03:36:26.018Z,3.40
2018-06-25T03:38:02.063Z,3.23
2018-06-25T03:39:38.039Z,3.27
2018-06-25T03:41:14.041Z,3.63
2018-06-25T03:42:50.050Z,3.33
2018-06-25T03:44:26.077Z,3.13
2018-06-25T03:46:02.096Z,3.50
2018-06-25T03:47:38.106Z,3.33
2018-06-25T03:49:14.157Z,3.57
2018-06-25T03:50:50.212Z,3.40
2018-06-25T03:52:26.274Z,4.10
2018-06-25T03:54:02.264Z,4.40
2018-06-25T03:55:38.265Z,3.97
2018-06-25T03:57:14.035Z,4.30
2018-06-25T03:58:50.119Z,4.00
2018-06-25T04:00:26.153Z,3.97
2018-06-25T04:02:02.195Z,3.83
2018-06-25T04:03:38.321Z,4.77
2018-06-25T04:05:14.417Z,4.20
2018-06-25T04:06:50.454Z,4.80
2018-06-25T04:08:26.441Z,4.23
2018-06-25T04:10:04.076Z,4.60
2018-06-25T04:11:40.754Z,4.30
2018-06-25T04:13:17.436Z,4.60
2018-06-25T04:14:53.493Z,4.40
2018-06-25T04:16:29.949Z,4.40
2018-06-25T04:18:06.465Z,4.40
2018-06-25T04:19:46.439Z,4.57
2018-06-25T04:21:24.286Z,4.70
2018-06-25T04:23:00.332Z,4.97
2018-06-25T04:24:38.111Z,4.10
2018-06-25T04:26:19.269Z,5.00
2018-06-25T04:28:02.274Z,4.90
2018-06-25T04:29:40.660Z,4.70
2018-06-25T04:31:17.256Z,4.23
2018-06-25T04:32:53.318Z,4.23
2018-06-25T04:34:30.062Z,3.93
2018-06-25T04:36:08.556Z,4.17
2018-06-25T04:37:52.757Z,4.40
2018-06-25T04:39:30.980Z,4.63
2018-06-25T04:41:07.828Z,4.30
2018-06-25T04:42:47.950Z,4.10
2018-06-25T04:44:25.090Z,4.50
2018-06-25T04:47:54.798Z,4.30
2018-06-25T04:49:30.803Z,4.40
2018-06-25T04:51:07.357Z,4.33
2018-06-25T04:52:48.980Z,3.90
2018-06-25T04:54:25.520Z,4.50
2018-06-25T04:56:08.967Z,3.93
2018-06-25T04:57:46.274Z,4.57
2018-06-25T04:59:25.292Z,4.13
2018-06-25T05:01:07.063Z,4.63
2018-06-25T05:02:45.779Z,4.40
2018-06-25T05:04:32.214Z,4.90
2018-06-25T05:06:09.958Z,4.63
2018-06-25T05:07:46.770Z,4.30
2018-06-25T05:09:25.036Z,4.90
2018-06-25T05:11:01.179Z,4.77
2018-06-25T05:12:40.669Z,4.57
2018-06-25T05:14:17.186Z,4.87
2018-06-25T05:16:00.627Z,4.23
2018-06-25T05:17:39.049Z,4.90
2018-06-25T05:19:25.401Z,4.10
2018-06-25T05:21:02.834Z,4.60
2018-06-25T05:22:41.397Z,4.07
2018-06-25T05:24:23.242Z,3.83
2018-06-25T05:26:08.065Z,4.50
2018-06-25T05:27:47.003Z,4.03
2018-06-25T05:29:23.009Z,4.33
2018-06-25T05:30:58.879Z,4.47
2018-06-25T05:32:35.124Z,4.87
2018-06-25T05:34:19.427Z,4.23
2018-06-25T05:35:58.614Z,4.60
2018-06-25T05:37:37.596Z,4.50
2018-06-25T05:39:16.493Z,4.10
2018-06-25T05:40:52.604Z,3.77
2018-06-25T05:42:28.363Z,4.47
2018-06-25T05:44:04.210Z,4.67
2018-06-25T05:45:40.255Z,4.57
2018-06-25T05:47:16.039Z,4.90
2018-06-25T05:48:51.862Z,4.77
2018-06-25T05:50:27.862Z,4.50
2018-06-25T05:52:21.635Z,4.40
2018-06-25T05:54:00.072Z,5.10
2018-06-25T05:55:36.367Z,4.80
2018-06-25T05:57:13.434Z,4.63
2018-06-25T05:58:50.110Z,4.47
2018-06-25T06:00:28.521Z,4.80
2018-06-25T06:02:05.580Z,4.73
2018-06-25T06:03:41.567Z,4.20
2018-06-25T06:05:17.781Z,4.47
2018-06-25T06:06:54.178Z,4.47
2018-06-25T06:08:33.297Z,4.40
2018-06-25T06:10:09.698Z,4.10
2018-06-25T06:11:46.089Z,4.40
2018-06-25T06:13:31.402Z,4.40
2018-06-25T06:15:13.073Z,4.50
2018-06-25T06:16:49.268Z,4.30
2018-06-25T06:18:27.674Z,4.33
2018-06-25T06:20:03.693Z,3.97
2018-06-25T06:21:39.720Z,4.13
2018-06-25T06:23:15.691Z,4.10
2018-06-25T06:24:51.670Z,4.63
2018-06-25T06:26:27.487Z,4.57
2018-06-25T06:28:03.271Z,3.77
2018-06-25T06:29:39.225Z,4.00
2018-06-25T06:31:14.886Z,4.07
2018-06-25T06:33:00.552Z,3.53
2018-06-25T06:34:41.858Z,4.43
2018-06-25T06:36:32.439Z,4.20
2018-06-25T06:38:24.387Z,4.00
2018-06-25T06:41:54.731Z,3.73
2018-06-25T06:43:37.059Z,4.40
2018-06-25T06:45:13.793Z,3.83
2018-06-25T06:46:58.927Z,3.97
2018-06-25T06:48:40.833Z,4.20
2018-06-25T06:50:23.943Z,3.93
2018-06-25T06:52:01.636Z,3.60
2018-06-25T06:53:46.966Z,4.37
2018-06-25T06:55:26.182Z,3.57
2018-06-25T06:57:03.525Z,3.40
2018-06-25T06:58:41.109Z,3.80
2018-06-25T07:00:23.200Z,3.73
2018-06-25T07:02:02.166Z,3.80
2018-06-25T07:03:50.741Z,3.83
2018-06-25T07:05:27.723Z,3.97
2018-06-25T07:07:10.527Z,3.37
2018-06-25T07:08:49.309Z,3.23
2018-06-25T07:10:25.444Z,3.50
2018-06-25T07:12:01.462Z,3.43
2018-06-25T07:13:37.573Z,3.30
2018-06-25T07:15:13.618Z,3.80
2018-06-25T07:16:49.725Z,3.43
2018-06-25T07:18:25.728Z,3.30
2018-06-25T07:20:01.720Z,3.37
2018-06-25T07:21:38.138Z,2.93
2018-06-25T07:23:14.159Z,2.77
2018-06-25T07:24:50.169Z,3.00
2018-06-25T07:26:26.561Z,3.07
2018-06-25T07:28:02.574Z,3.67
2018-06-25T07:29:40.198Z,3.00
2018-06-25T07:31:16.269Z,2.90
2018-06-25T07:32:52.285Z,3.77
2018-06-25T07:34:28.344Z,3.50
2018-06-25T07:36:04.211Z,3.10
2018-06-25T07:37:41.213Z,3.00
2018-06-25T07:39:17.227Z,3.00
2018-06-25T07:40:53.258Z,2.97
2018-06-25T07:42:29.494Z,2.70
2018-06-25T07:44:05.541Z,3.50
2018-06-25T07:45:41.580Z,3.63
2018-06-25T07:47:17.739Z,3.13
2018-06-25T07:48:53.612Z,3.23
2018-06-25T07:50:29.766Z,3.50
2018-06-25T07:52:05.780Z,2.67
2018-06-25T07:53:41.910Z,3.47
2018-06-25T07:55:17.808Z,3.23
2018-06-25T07:56:53.774Z,2.93
2018-06-25T07:58:29.827Z,3.00
2018-06-25T08:00:06.552Z,2.90
2018-06-25T08:01:42.598Z,2.90
2018-06-25T08:03:18.618Z,2.70
2018-06-25T08:04:54.726Z,2.40
2018-06-25T08:06:30.745Z,2.20
2018-06-25T08:08:06.578Z,2.87
2018-06-25T08:09:42.625Z,2.40
2018-06-25T08:11:18.646Z,2.67
2018-06-25T08:12:54.737Z,2.70
2018-06-25T08:14:30.730Z,2.97
2018-06-25T08:16:07.021Z,2.43
2018-06-25T08:17:43.035Z,2.37
2018-06-25T08:19:19.018Z,3.10
2018-06-25T08:20:55.016Z,2.77
2018-06-25T08:22:30.755Z,2.80
2018-06-25T08:24:06.347Z,2.40
2018-06-25T08:25:42.125Z,2.57
2018-06-25T08:27:18.126Z,2.70
2018-06-25T08:28:54.138Z,2.77
2018-06-25T08:30:30.219Z,2.70
2018-06-25T08:32:06.208Z,2.80
2018-06-25T08:33:42.215Z,2.30
2018-06-25T08:35:18.221Z,2.30
2018-06-25T08:36:54.275Z,2.00
2018-06-25T08:38:30.222Z,2.10
2018-06-25T08:40:06.356Z,2.13
2018-06-25T08:41:42.353Z,2.00
2018-06-25T08:43:18.480Z,2.10
2018-06-25T08:44:54.422Z,1.77
2018-06-25T08:46:30.532Z,1.80
2018-06-25T08:48:07.358Z,1.90
2018-06-25T08:49:43.368Z,2.07
2018-06-25T08:51:20.615Z,1.90
2018-06-25T08:52:56.379Z,1.80
2018-06-25T08:54:32.252Z,2.00
2018-06-25T08:56:08.256Z,1.80
2018-06-25T08:57:44.235Z,1.50
2018-06-25T08:59:20.247Z,1.70
2018-06-25T09:00:56.208Z,1.67
2018-06-25T09:02:33.415Z,2.10
2018-06-25T09:04:09.427Z,1.73
2018-06-25T09:05:45.422Z,1.77
2018-06-25T09:07:21.418Z,1.83
2018-06-25T09:08:57.699Z,1.80
2018-06-25T09:10:33.948Z,2.00
2018-06-25T09:12:09.743Z,1.80
2018-06-25T09:13:49.603Z,2.10
2018-06-25T09:15:25.897Z,1.70
2018-06-25T09:17:01.916Z,1.73
2018-06-25T09:18:37.966Z,1.90
2018-06-25T09:20:18.395Z,1.80
2018-06-25T09:21:55.458Z,1.60
2018-06-25T09:23:31.459Z,2.10
2018-06-25T09:25:12.307Z,2.10
2018-06-25T09:26:49.503Z,2.10
2018-06-25T09:28:30.376Z,2.00
2018-06-25T09:30:07.944Z,1.90
2018-06-25T09:31:43.966Z,2.00
2018-06-25T09:33:20.026Z,2.00
2018-06-25T09:34:56.326Z,2.10
2018-06-25T09:36:32.368Z,2.10
2018-06-25T09:38:09.832Z,2.17
2018-06-25T09:39:45.906Z,1.80
2018-06-25T09:41:21.775Z,2.00
2018-06-25T09:42:57.580Z,2.00
2018-06-25T09:44:34.926Z,2.07
2018-06-25T09:46:11.941Z,1.70
2018-06-25T09:47:48.013Z,1.87
2018-06-25T09:49:24.012Z,1.60
2018-06-25T09:51:00.816Z,1.60
2018-06-25T09:52:36.938Z,1.77
2018-06-25T09:54:13.002Z,1.60
2018-06-25T09:55:49.092Z,1.80
2018-06-25T09:57:25.182Z,1.77
2018-06-25T09:59:01.264Z,1.57
2018-06-25T10:00:42.815Z,1.53
2018-06-25T10:02:19.775Z,1.70
2018-06-25T10:04:01.300Z,1.50
2018-06-25T10:05:37.332Z,1.57
2018-06-25T10:07:14.023Z,1.60
2018-06-25T10:08:50.097Z,1.80
2018-06-25T10:10:26.221Z,1.90
2018-06-25T10:12:02.213Z,2.10
2018-06-25T10:13:38.231Z,1.97
2018-06-25T10:15:14.321Z,2.07
2018-06-25T10:16:50.322Z,1.97
2018-06-25T10:18:26.364Z,1.80
2018-06-25T10:20:02.442Z,1.80
2018-06-25T10:21:38.456Z,1.80
2018-06-25T10:23:14.462Z,1.60
2018-06-25T10:24:50.467Z,2.03
2018-06-25T10:26:26.491Z,1.80
2018-06-25T10:28:02.870Z,1.80
2018-06-25T10:29:38.888Z,1.80
2018-06-25T10:31:14.929Z,1.57
2018-06-25T10:32:50.949Z,1.50
2018-06-25T10:34:27.004Z,1.70
2018-06-25T10:36:03.256Z,1.87
2018-06-25T10:37:39.341Z,1.73
2018-06-25T10:39:15.403Z,1.80
2018-06-25T10:40:52.685Z,2.00
2018-06-25T10:42:28.539Z,2.00
2018-06-25T10:44:05.174Z,1.93
2018-06-25T10:45:41.182Z,2.20
2018-06-25T10:47:17.208Z,2.20
2018-06-25T10:48:53.300Z,2.20
2018-06-25T10:50:29.305Z,1.87
2018-06-25T10:52:05.430Z,1.90
2018-06-25T10:53:41.466Z,2.00
2018-06-25T10:55:17.511Z,1.90
2018-06-25T10:56:53.526Z,2.00
2018-06-25T10:58:29.703Z,1.90
2018-06-25T11:00:06.844Z,1.60
2018-06-25T11:01:42.695Z,1.90
2018-06-25T11:03:18.693Z,1.80
2018-06-25T11:04:54.673Z,1.87
2018-06-25T11:06:30.757Z,1.53
2018-06-25T11:08:06.874Z,2.00
2018-06-25T11:09:42.932Z,1.73
2018-06-25T11:11:18.918Z,1.90
2018-06-25T11:12:54.789Z,1.70
2018-06-25T11:14:30.742Z,2.00
2018-06-25T11:16:07.761Z,1.90
2018-06-25T11:17:43.531Z,1.80
2018-06-25T11:19:19.296Z,1.90
2018-06-25T11:20:55.305Z,1.93
2018-06-25T11:22:31.341Z,1.83
2018-06-25T11:24:07.842Z,1.70
2018-06-25T11:25:44.042Z,1.80
2018-06-25T11:27:20.162Z,1.83
2018-06-25T11:28:56.076Z,1.87
2018-06-25T11:30:32.060Z,2.00
2018-06-25T11:32:10.325Z,1.97
2018-06-25T11:33:48.219Z,2.17
2018-06-25T11:35:24.124Z,2.33
2018-06-25T11:37:03.823Z,2.30
2018-06-25T11:38:40.191Z,1.80
2018-06-25T11:40:16.317Z,1.93
2018-06-25T11:41:53.246Z,1.87
2018-06-25T11:43:29.346Z,2.20
2018-06-25T11:45:08.630Z,1.90
2018-06-25T11:46:46.120Z,1.90
2018-06-25T11:48:22.588Z,1.97
2018-06-25T11:50:01.462Z,2.10
2018-06-25T11:51:40.248Z,2.13
2018-06-25T11:53:17.894Z,1.63
2018-06-25T11:54:59.058Z,2.00
2018-06-25T11:56:40.522Z,2.20
2018-06-25T11:58:22.549Z,2.17
2018-06-25T12:00:02.479Z,1.90
2018-06-25T12:01:45.409Z,1.90
2018-06-25T12:03:25.623Z,1.87
2018-06-25T12:05:01.893Z,2.00
2018-06-25T12:06:38.624Z,2.10
2018-06-25T12:08:18.997Z,1.80
2018-06-25T12:09:56.938Z,2.07
2018-06-25T12:11:33.560Z,2.10
2018-06-25T12:13:11.051Z,1.60
2018-06-25T12:14:48.338Z,1.87
2018-06-25T12:16:59.222Z,1.87
2018-06-25T12:19:08.532Z,2.10
2018-06-25T12:20:47.239Z,1.73
2018-06-25T12:22:23.763Z,1.97
2018-06-25T12:24:04.973Z,1.93
2018-06-25T12:25:42.527Z,2.03
2018-06-25T12:27:20.747Z,2.40
2018-06-25T12:28:57.437Z,2.30
2018-06-25T12:30:34.606Z,2.43
2018-06-25T12:32:11.122Z,2.60
2018-06-25T12:33:48.908Z,2.50
2018-06-25T12:35:25.379Z,2.50
2018-06-25T12:37:01.423Z,2.17
2018-06-25T12:38:37.766Z,2.60
2018-06-25T12:40:14.316Z,2.40
2018-06-25T12:41:50.434Z,2.80
2018-06-25T12:43:26.863Z,2.70
2018-06-25T12:45:05.347Z,2.70
2018-06-25T12:46:44.134Z,2.47
2018-06-25T12:48:22.647Z,2.73
2018-06-25T12:50:01.108Z,2.80
2018-06-25T12:51:40.407Z,3.00
2018-06-25T12:53:19.703Z,3.00
2018-06-25T12:54:57.942Z,2.73
2018-06-25T12:56:34.608Z,2.97
2018-06-25T12:58:13.598Z,3.00
2018-06-25T12:59:56.286Z,3.03
2018-06-25T13:01:39.929Z,2.67
2018-06-25T13:03:16.294Z,2.90
2018-06-25T13:04:51.855Z,3.07
2018-06-25T13:06:28.691Z,3.20
2018-06-25T13:08:06.420Z,3.00
2018-06-25T13:09:42.858Z,3.07
2018-06-25T13:11:19.260Z,3.50
2018-06-25T13:12:58.028Z,3.30
2018-06-25T13:14:35.116Z,3.20
2018-06-25T13:16:12.897Z,3.60
2018-06-25T13:17:49.122Z,3.50
2018-06-25T13:19:25.195Z,3.40
2018-06-25T13:21:03.951Z,3.67
2018-06-25T13:22:45.628Z,3.37
2018-06-25T13:24:34.357Z,3.57
2018-06-25T13:26:16.705Z,3.47
2018-06-25T13:27:53.931Z,3.57
2018-06-25T13:29:35.931Z,3.23
2018-06-25T13:31:11.833Z,4.10
2018-06-25T13:32:47.660Z,3.40
2018-06-25T13:34:23.879Z,3.40
2018-06-25T13:35:59.813Z,3.53
2018-06-25T13:37:35.802Z,3.13
2018-06-25T13:39:11.884Z,3.43
2018-06-25T13:40:47.993Z,3.23
2018-06-25T13:42:24.904Z,3.50
2018-06-25T13:44:00.958Z,3.30
2018-06-25T13:45:37.070Z,3.20
2018-06-25T13:47:13.147Z,3.70
2018-06-25T13:48:49.476Z,3.60
2018-06-25T13:50:25.593Z,3.50
2018-06-25T13:52:01.592Z,3.80
2018-06-25T13:53:37.582Z,3.60
2018-06-25T13:55:13.588Z,3.70
2018-06-25T13:56:49.662Z,3.43
2018-06-25T13:58:25.720Z,3.40
2018-06-25T14:00:01.747Z,3.40
2018-06-25T14:01:37.858Z,3.67
2018-06-25T14:03:13.890Z,3.70
2018-06-25T14:04:49.921Z,3.37
2018-06-25T14:06:25.940Z,3.30
2018-06-25T14:08:01.812Z,3.70
2018-06-25T14:09:37.736Z,3.90
2018-06-25T14:11:13.548Z,3.90
2018-06-25T14:12:49.386Z,3.67
2018-06-25T14:14:25.402Z,3.73
2018-06-25T14:16:01.471Z,3.70
2018-06-25T14:17:37.511Z,3.33
2018-06-25T14:19:13.565Z,3.43
2018-06-25T14:20:49.647Z,3.47
2018-06-25T14:22:25.693Z,3.50
2018-06-25T14:24:07.063Z,3.63
2018-06-25T14:25:48.252Z,3.70
2018-06-25T14:27:29.186Z,3.80
2018-06-25T14:29:10.623Z,3.43
2018-06-25T14:30:54.698Z,3.60
2018-06-25T14:32:35.069Z,3.60
2018-06-25T14:34:25.056Z,3.13
2018-06-25T14:36:06.541Z,3.30
2018-06-25T14:37:42.801Z,3.20
2018-06-25T14:39:28.356Z,3.20
2018-06-25T14:41:04.384Z,3.93
2018-06-25T14:42:40.732Z,3.50
2018-06-25T14:44:16.770Z,3.70
2018-06-25T14:45:53.172Z,3.37
2018-06-25T14:47:29.396Z,3.20
2018-06-25T14:49:05.496Z,3.60
2018-06-25T14:50:41.515Z,3.13
2018-06-25T14:52:17.635Z,3.47
2018-06-25T14:53:53.629Z,3.30
2018-06-25T14:55:29.736Z,3.50
2018-06-25T14:57:05.798Z,3.10
2018-06-25T14:58:42.152Z,3.33
2018-06-25T15:00:20.803Z,3.20
2018-06-25T15:01:57.891Z,3.50
2018-06-25T15:03:34.124Z,3.57
2018-06-25T15:05:10.384Z,3.63
2018-06-25T15:06:48.067Z,3.40
2018-06-25T15:08:24.325Z,2.90
2018-06-25T15:10:02.435Z,2.87
2018-06-25T15:11:40.658Z,3.13
2018-06-25T15:13:17.029Z,2.97
2018-06-25T15:14:52.949Z,3.23
2018-06-25T15:16:29.503Z,3.20
2018-06-25T15:18:06.887Z,3.23
2018-06-25T15:19:42.936Z,3.00
2018-06-25T15:21:19.778Z,2.80
2018-06-25T15:22:56.388Z,2.90
2018-06-25T15:24:33.654Z,2.97
2018-06-25T15:26:09.791Z,3.00
2018-06-25T15:27:45.788Z,3.23
2018-06-25T15:29:22.079Z,3.30
2018-06-25T15:30:58.646Z,3.37
2018-06-25T15:32:34.700Z,3.17
2018-06-25T15:34:12.086Z,3.10
2018-06-25T15:35:48.467Z,3.10
2018-06-25T15:37:24.445Z,3.10
2018-06-25T15:39:01.170Z,3.13
2018-06-25T15:40:42.061Z,3.27
2018-06-25T15:42:18.080Z,3.37
2018-06-25T15:43:54.162Z,3.23
2018-06-25T15:45:30.776Z,2.90
2018-06-25T15:47:08.170Z,2.90
2018-06-25T15:48:48.766Z,3.37
2018-06-25T15:50:24.815Z,3.10
2018-06-25T15:52:00.904Z,3.03
2018-06-25T15:53:37.661Z,2.83
2018-06-25T15:55:13.947Z,2.90
2018-06-25T15:56:51.044Z,2.50
2018-06-25T15:58:27.497Z,2.90
2018-06-25T16:00:04.629Z,3.13
2018-06-25T16:01:40.759Z,2.90
2018-06-25T16:03:17.168Z,2.93
2018-06-25T16:04:53.438Z,2.87
2018-06-25T16:06:29.445Z,3.27
2018-06-25T16:08:06.043Z,2.90
2018-06-25T16:09:44.394Z,2.97
2018-06-25T16:11:20.578Z,3.00
2018-06-25T16:12:58.023Z,2.67
2018-06-25T16:14:34.631Z,3.07
2018-06-25T16:16:10.969Z,3.17
2018-06-25T16:17:59.036Z,2.77
2018-06-25T16:19:41.012Z,2.80
2018-06-25T16:21:17.118Z,3.40
2018-06-25T16:22:53.215Z,3.20
2018-06-25T16:24:31.711Z,2.73
2018-06-25T16:26:08.955Z,2.87
2018-06-25T16:27:47.325Z,2.90
2018-06-25T16:29:28.182Z,3.00
2018-06-25T16:31:04.512Z,2.60
2018-06-25T16:32:41.232Z,2.60
2018-06-25T16:34:17.895Z,2.40
2018-06-25T16:35:56.194Z,3.40
2018-06-25T16:37:35.114Z,2.60
2018-06-25T16:39:14.179Z,2.40
2018-06-25T16:41:03.898Z,3.07
2018-06-25T16:42:40.277Z,3.13
2018-06-25T16:44:17.809Z,2.73
2018-06-25T16:45:53.797Z,2.70
2018-06-25T16:47:32.497Z,2.60
2018-06-25T16:49:08.772Z,2.97
2018-06-25T16:50:45.838Z,2.60
2018-06-25T16:52:21.765Z,3.07
2018-06-25T16:53:57.789Z,2.97
2018-06-25T16:55:34.117Z,2.30
2018-06-25T16:57:14.160Z,2.60
2018-06-25T16:58:51.559Z,2.70
2018-06-25T17:00:27.692Z,2.93
2018-06-25T17:02:03.719Z,3.00
2018-06-25T17:03:39.777Z,2.73
2018-06-25T17:05:15.830Z,2.63
2018-06-25T17:06:51.916Z,2.70
2018-06-25T17:08:28.084Z,2.77
2018-06-25T17:10:10.776Z,2.80
2018-06-25T17:11:59.743Z,2.60
2018-06-25T17:13:39.625Z,3.07
2018-06-25T17:15:17.688Z,2.90
2018-06-25T17:16:57.264Z,2.80
2018-06-25T17:18:37.246Z,2.70
2018-06-25T17:20:23.260Z,2.97
2018-06-25T17:22:00.202Z,2.50
2018-06-25T17:23:37.116Z,3.10
2018-06-25T17:25:16.504Z,2.70
2018-06-25T17:26:59.690Z,3.10
2018-06-25T17:28:35.926Z,2.93
2018-06-25T17:30:14.682Z,2.47
2018-06-25T17:31:51.011Z,2.30
2018-06-25T17:33:28.608Z,2.70
2018-06-25T17:35:06.891Z,2.73
2018-06-25T17:36:43.342Z,2.90
2018-06-25T17:38:19.725Z,2.70
2018-06-25T17:39:55.811Z,3.10
2018-06-25T17:41:31.994Z,2.90
2018-06-25T17:43:08.029Z,2.67
2018-06-25T17:44:44.058Z,2.83
2018-06-25T17:46:20.118Z,2.60
2018-06-25T17:47:56.386Z,3.00
2018-06-25T17:49:32.463Z,2.97
2018-06-25T17:51:14.689Z,2.80
2018-06-25T17:52:51.602Z,2.83
2018-06-25T17:54:32.633Z,2.67
2018-06-25T17:56:11.785Z,3.17
2018-06-25T17:57:53.059Z,2.53
2018-06-25T17:59:31.795Z,2.93
2018-06-25T18:01:11.931Z,2.67
2018-06-25T18:02:49.429Z,2.67
2018-06-25T18:04:26.397Z,2.70
2018-06-25T18:06:04.238Z,2.83
2018-06-25T18:07:41.320Z,3.17
2018-06-25T18:09:19.813Z,3.30
2018-06-25T18:10:56.765Z,3.30
2018-06-25T18:12:33.340Z,3.60
2018-06-25T18:14:09.568Z,3.10
2018-06-25T18:15:49.319Z,2.90
2018-06-25T18:17:31.743Z,3.20
2018-06-25T18:19:13.623Z,2.60
2018-06-25T18:21:07.048Z,3.00
2018-06-25T18:22:44.658Z,3.17
2018-06-25T18:24:54.052Z,2.63
2018-06-25T18:26:34.511Z,3.00
2018-06-25T18:28:12.172Z,3.23
2018-06-25T18:29:54.415Z,3.27
2018-06-25T18:31:31.084Z,3.00
2018-06-25T18:33:08.489Z,3.03
2018-06-25T18:34:48.794Z,3.27
2018-06-25T18:36:37.775Z,3.00
2018-06-25T18:38:29.250Z,2.80
2018-06-25T18:40:25.520Z,3.27
2018-06-25T18:42:51.445Z,3.40
2018-06-25T18:47:08.758Z,3.10
2018-06-25T18:48:45.816Z,3.50
2018-06-25T18:50:23.371Z,3.60
2018-06-25T18:52:01.672Z,3.73
2018-06-25T18:53:37.478Z,3.70
2018-06-25T18:55:13.979Z,3.43
2018-06-25T18:56:50.137Z,3.57
2018-06-25T18:58:26.510Z,3.30
2018-06-25T19:00:02.595Z,3.60
2018-06-25T19:01:39.542Z,3.50
2018-06-25T19:03:15.960Z,3.40
2018-06-25T19:04:51.803Z,3.23
2018-06-25T19:06:30.619Z,3.57
2018-06-25T19:08:06.678Z,3.60
2018-06-25T19:09:42.537Z,3.83
2018-06-25T19:11:18.394Z,3.70
2018-06-25T19:12:54.470Z,4.20
2018-06-25T19:14:33.520Z,4.10
2018-06-25T19:16:10.600Z,4.63
2018-06-25T19:18:09.493Z,4.00
2018-06-25T19:19:49.138Z,4.27
2018-06-25T19:21:31.038Z,4.33
2018-06-25T19:23:07.183Z,4.00
2018-06-25T19:24:44.756Z,3.97
2018-06-25T19:26:20.979Z,3.87
2018-06-25T19:27:58.907Z,4.27
2018-06-25T19:29:36.913Z,3.97
2018-06-25T19:31:13.165Z,3.50
2018-06-25T19:32:49.587Z,3.93
2018-06-25T19:34:25.791Z,3.67
2018-06-25T19:36:02.000Z,4.10
2018-06-25T19:37:38.111Z,4.27
2018-06-25T19:39:15.096Z,3.77
2018-06-25T19:40:53.178Z,3.53
2018-06-25T19:42:30.797Z,3.87
2018-06-25T19:44:06.877Z,4.30
2018-06-25T19:45:42.981Z,4.10
2018-06-25T19:47:19.025Z,4.00
2018-06-25T19:48:55.150Z,3.83
2018-06-25T19:50:31.251Z,4.03
2018-06-25T19:52:09.590Z,4.23
2018-06-25T19:53:45.665Z,4.07
2018-06-25T19:55:21.712Z,3.57
2018-06-25T19:56:57.869Z,3.93
2018-06-25T19:58:33.981Z,4.13
2018-06-25T20:00:10.136Z,3.60
2018-06-25T20:01:46.152Z,3.37
2018-06-25T20:03:22.247Z,3.37
2018-06-25T20:04:58.375Z,3.47
2018-06-25T20:06:35.020Z,3.83
2018-06-25T20:08:11.071Z,3.70
2018-06-25T20:09:47.242Z,3.50
2018-06-25T20:11:23.349Z,3.70
2018-06-25T20:12:59.331Z,3.90
2018-06-25T20:14:35.395Z,3.07
2018-06-25T20:16:11.545Z,3.20
2018-06-25T20:17:47.574Z,3.50
2018-06-25T20:19:23.648Z,3.37
2018-06-25T20:20:59.840Z,3.67
2018-06-25T20:22:35.842Z,3.80
2018-06-25T20:24:11.876Z,3.50
2018-06-25T20:25:48.017Z,3.23
2018-06-25T20:27:24.054Z,3.47
2018-06-25T20:29:00.197Z,3.37
2018-06-25T20:30:35.987Z,3.80
2018-06-25T20:32:11.805Z,3.20
2018-06-25T20:33:49.102Z,3.33
2018-06-25T20:35:25.172Z,3.37
2018-06-25T20:37:01.354Z,3.30
2018-06-25T20:38:37.199Z,3.30
2018-06-25T20:40:13.105Z,3.80
2018-06-25T20:41:49.162Z,3.07
2018-06-25T20:43:25.194Z,3.33
2018-06-25T20:45:01.186Z,3.80
2018-06-25T20:46:37.285Z,3.30
2018-06-25T20:48:13.276Z,3.70
2018-06-25T20:49:49.332Z,3.50
2018-06-25T20:51:25.382Z,3.90
2018-06-25T20:53:01.427Z,3.70
2018-06-25T20:54:37.487Z,3.73
2018-06-25T20:56:13.667Z,3.33
2018-06-25T20:57:49.732Z,3.53
2018-06-25T20:59:26.203Z,3.53
2018-06-25T21:01:02.313Z,3.70
2018-06-25T21:02:38.397Z,3.70
2018-06-25T21:04:14.386Z,3.17
2018-06-25T21:05:50.406Z,3.60
2018-06-25T21:07:26.509Z,3.37
2018-06-25T21:09:02.613Z,3.10
2018-06-25T21:10:38.727Z,3.37
2018-06-25T21:12:19.040Z,3.30
2018-06-25T21:13:55.103Z,3.37
2018-06-25T21:15:31.155Z,3.30
2018-06-25T21:17:07.158Z,3.37
2018-06-25T21:18:43.234Z,2.80
2018-06-25T21:20:19.291Z,3.43
2018-06-25T21:21:55.400Z,3.63
2018-06-25T21:23:31.432Z,3.43
2018-06-25T21:25:07.585Z,3.03
2018-06-25T21:26:43.641Z,3.57
2018-06-25T21:28:19.699Z,3.13
2018-06-25T21:29:55.755Z,3.47
2018-06-25T21:31:31.593Z,2.93
2018-06-25T21:33:07.505Z,3.43
2018-06-25T21:34:43.551Z,3.10
2018-06-25T21:36:19.612Z,3.17
2018-06-25T21:37:55.602Z,3.07
2018-06-25T21:39:31.639Z,3.40
2018-06-25T21:41:07.755Z,3.70
2018-06-25T21:42:44.396Z,3.20
2018-06-25T21:44:20.466Z,2.53